sensor_id;sensor_type;location;lat;lon;timestamp;P1;durP1;ratioP1;P2;durP2;ratioP2
4885;SDS011;2457;51.788;6.136;2023-04-21T00:00:03;13.73;;;8.87;;
4885;SDS011;2457;51.788;6.136;2023-04-21T00:02:32;15.27;;;8.90;;
4885;SDS011;2457;51.788;6.136;2023-04-21T00:05:01;14.37;;;8.33;;
4885;SDS011;2457;51.788;6.136;2023-04-21T00:07:29;13.90;;;8.43;;
4885;SDS011;2457;51.788;6.136;2023-04-21T00:09:56;18.73;;;9.40;;
4885;SDS011;2457;51.788;6.136;2023-04-21T00:12:23;16.53;;;9.17;;
4885;SDS011;2457;51.788;6.136;2023-04-21T00:14:50;14.67;;;8.40;;
4885;SDS011;2457;51.788;6.136;2023-04-21T00:17:18;15.73;;;8.33;;
4885;SDS011;2457;51.788;6.136;2023-04-21T00:19:45;14.47;;;8.50;;
4885;SDS011;2457;51.788;6.136;2023-04-21T00:22:13;18.73;;;8.33;;
4885;SDS011;2457;51.788;6.136;2023-04-21T00:24:40;14.60;;;8.53;;
4885;SDS011;2457;51.788;6.136;2023-04-21T00:27:07;15.90;;;8.70;;
4885;SDS011;2457;51.788;6.136;2023-04-21T00:29:36;15.43;;;8.40;;
4885;SDS011;2457;51.788;6.136;2023-04-21T00:32:04;15.10;;;8.90;;
4885;SDS011;2457;51.788;6.136;2023-04-21T00:34:33;14.90;;;8.40;;
4885;SDS011;2457;51.788;6.136;2023-04-21T00:37:01;19.67;;;9.87;;
4885;SDS011;2457;51.788;6.136;2023-04-21T00:39:28;18.70;;;10.53;;
4885;SDS011;2457;51.788;6.136;2023-04-21T00:41:56;19.37;;;10.80;;
4885;SDS011;2457;51.788;6.136;2023-04-21T00:44:23;17.73;;;9.50;;
4885;SDS011;2457;51.788;6.136;2023-04-21T00:46:50;16.60;;;10.20;;
4885;SDS011;2457;51.788;6.136;2023-04-21T00:49:17;21.10;;;9.43;;
4885;SDS011;2457;51.788;6.136;2023-04-21T00:51:45;18.67;;;10.00;;
4885;SDS011;2457;51.788;6.136;2023-04-21T00:54:12;22.63;;;9.67;;
4885;SDS011;2457;51.788;6.136;2023-04-21T00:56:40;18.67;;;10.43;;
4885;SDS011;2457;51.788;6.136;2023-04-21T00:59:07;20.20;;;10.30;;
4885;SDS011;2457;51.788;6.136;2023-04-21T01:01:34;18.53;;;11.13;;
4885;SDS011;2457;51.788;6.136;2023-04-21T01:04:02;19.87;;;10.77;;
4885;SDS011;2457;51.788;6.136;2023-04-21T01:06:31;18.50;;;10.93;;
4885;SDS011;2457;51.788;6.136;2023-04-21T01:08:59;20.50;;;11.57;;
4885;SDS011;2457;51.788;6.136;2023-04-21T01:11:26;21.27;;;11.07;;
4885;SDS011;2457;51.788;6.136;2023-04-21T01:13:54;21.90;;;11.30;;
4885;SDS011;2457;51.788;6.136;2023-04-21T01:16:21;16.40;;;9.30;;
4885;SDS011;2457;51.788;6.136;2023-04-21T01:18:49;22.20;;;10.23;;
4885;SDS011;2457;51.788;6.136;2023-04-21T01:21:18;20.13;;;11.20;;
4885;SDS011;2457;51.788;6.136;2023-04-21T01:23:47;22.73;;;11.87;;
4885;SDS011;2457;51.788;6.136;2023-04-21T01:26:19;20.27;;;11.80;;
4885;SDS011;2457;51.788;6.136;2023-04-21T01:28:43;19.87;;;11.13;;
4885;SDS011;2457;51.788;6.136;2023-04-21T01:31:10;20.17;;;11.50;;
4885;SDS011;2457;51.788;6.136;2023-04-21T01:33:37;19.00;;;11.33;;
4885;SDS011;2457;51.788;6.136;2023-04-21T01:36:05;18.87;;;10.80;;
4885;SDS011;2457;51.788;6.136;2023-04-21T01:38:32;19.80;;;10.70;;
4885;SDS011;2457;51.788;6.136;2023-04-21T01:40:59;17.50;;;10.13;;
4885;SDS011;2457;51.788;6.136;2023-04-21T01:43:27;16.50;;;10.47;;
4885;SDS011;2457;51.788;6.136;2023-04-21T01:45:54;16.77;;;10.83;;
4885;SDS011;2457;51.788;6.136;2023-04-21T01:48:21;19.20;;;11.90;;
4885;SDS011;2457;51.788;6.136;2023-04-21T01:50:48;19.63;;;10.80;;
4885;SDS011;2457;51.788;6.136;2023-04-21T01:53:16;20.80;;;10.90;;
4885;SDS011;2457;51.788;6.136;2023-04-21T01:55:43;20.63;;;11.40;;
4885;SDS011;2457;51.788;6.136;2023-04-21T01:58:10;19.77;;;10.90;;
4885;SDS011;2457;51.788;6.136;2023-04-21T02:00:37;19.50;;;11.57;;
4885;SDS011;2457;51.788;6.136;2023-04-21T02:03:05;22.03;;;11.57;;
4885;SDS011;2457;51.788;6.136;2023-04-21T02:05:32;17.60;;;10.40;;
4885;SDS011;2457;51.788;6.136;2023-04-21T02:07:59;17.33;;;10.40;;
4885;SDS011;2457;51.788;6.136;2023-04-21T02:10:27;15.87;;;10.07;;
4885;SDS011;2457;51.788;6.136;2023-04-21T02:12:54;18.80;;;10.57;;
4885;SDS011;2457;51.788;6.136;2023-04-21T02:15:21;19.13;;;10.80;;
4885;SDS011;2457;51.788;6.136;2023-04-21T02:17:48;20.57;;;11.73;;
4885;SDS011;2457;51.788;6.136;2023-04-21T02:20:16;19.20;;;10.20;;
4885;SDS011;2457;51.788;6.136;2023-04-21T02:22:43;17.33;;;10.10;;
4885;SDS011;2457;51.788;6.136;2023-04-21T02:25:10;18.40;;;11.17;;
4885;SDS011;2457;51.788;6.136;2023-04-21T02:27:37;17.60;;;10.43;;
4885;SDS011;2457;51.788;6.136;2023-04-21T02:30:05;21.00;;;11.80;;
4885;SDS011;2457;51.788;6.136;2023-04-21T02:32:33;15.60;;;9.57;;
4885;SDS011;2457;51.788;6.136;2023-04-21T02:35:00;18.83;;;10.67;;
4885;SDS011;2457;51.788;6.136;2023-04-21T02:37:27;18.13;;;10.87;;
4885;SDS011;2457;51.788;6.136;2023-04-21T02:39:54;20.70;;;11.33;;
4885;SDS011;2457;51.788;6.136;2023-04-21T02:42:22;18.50;;;11.43;;
4885;SDS011;2457;51.788;6.136;2023-04-21T02:44:49;22.73;;;12.20;;
4885;SDS011;2457;51.788;6.136;2023-04-21T02:47:16;19.27;;;12.57;;
4885;SDS011;2457;51.788;6.136;2023-04-21T02:49:43;21.53;;;11.80;;
4885;SDS011;2457;51.788;6.136;2023-04-21T02:52:11;19.47;;;11.00;;
4885;SDS011;2457;51.788;6.136;2023-04-21T02:54:38;21.80;;;12.67;;
4885;SDS011;2457;51.788;6.136;2023-04-21T02:57:05;23.67;;;12.33;;
4885;SDS011;2457;51.788;6.136;2023-04-21T02:59:33;20.40;;;11.67;;
4885;SDS011;2457;51.788;6.136;2023-04-21T03:02:00;23.47;;;12.33;;
4885;SDS011;2457;51.788;6.136;2023-04-21T03:04:27;19.77;;;12.13;;
4885;SDS011;2457;51.788;6.136;2023-04-21T03:06:55;19.43;;;12.07;;
4885;SDS011;2457;51.788;6.136;2023-04-21T03:09:23;18.77;;;11.20;;
4885;SDS011;2457;51.788;6.136;2023-04-21T03:11:50;19.87;;;11.93;;
4885;SDS011;2457;51.788;6.136;2023-04-21T03:14:17;21.30;;;12.60;;
4885;SDS011;2457;51.788;6.136;2023-04-21T03:16:45;21.90;;;12.17;;
4885;SDS011;2457;51.788;6.136;2023-04-21T03:19:12;22.83;;;11.90;;
4885;SDS011;2457;51.788;6.136;2023-04-21T03:21:40;22.97;;;12.83;;
4885;SDS011;2457;51.788;6.136;2023-04-21T03:24:07;27.50;;;13.60;;
4885;SDS011;2457;51.788;6.136;2023-04-21T03:26:34;22.90;;;11.87;;
4885;SDS011;2457;51.788;6.136;2023-04-21T03:29:01;21.17;;;11.97;;
4885;SDS011;2457;51.788;6.136;2023-04-21T03:31:29;22.93;;;13.13;;
4885;SDS011;2457;51.788;6.136;2023-04-21T03:33:56;21.03;;;13.13;;
4885;SDS011;2457;51.788;6.136;2023-04-21T03:36:23;22.22;;;13.32;;
4885;SDS011;2457;51.788;6.136;2023-04-21T03:38:51;23.00;;;12.37;;
4885;SDS011;2457;51.788;6.136;2023-04-21T03:41:18;22.50;;;12.90;;
4885;SDS011;2457;51.788;6.136;2023-04-21T03:43:45;21.57;;;12.60;;
4885;SDS011;2457;51.788;6.136;2023-04-21T03:46:16;23.20;;;14.00;;
4885;SDS011;2457;51.788;6.136;2023-04-21T03:48:44;26.97;;;14.40;;
4885;SDS011;2457;51.788;6.136;2023-04-21T03:51:12;20.73;;;13.60;;
4885;SDS011;2457;51.788;6.136;2023-04-21T03:53:39;23.93;;;13.77;;
4885;SDS011;2457;51.788;6.136;2023-04-21T03:56:07;22.23;;;14.10;;
4885;SDS011;2457;51.788;6.136;2023-04-21T03:58:34;25.37;;;13.90;;
4885;SDS011;2457;51.788;6.136;2023-04-21T04:01:03;21.27;;;13.27;;
4885;SDS011;2457;51.788;6.136;2023-04-21T04:03:31;19.63;;;12.30;;
4885;SDS011;2457;51.788;6.136;2023-04-21T04:05:58;23.50;;;13.17;;
4885;SDS011;2457;51.788;6.136;2023-04-21T04:08:26;23.43;;;14.40;;
4885;SDS011;2457;51.788;6.136;2023-04-21T04:10:53;27.60;;;14.17;;
4885;SDS011;2457;51.788;6.136;2023-04-21T04:13:20;24.00;;;12.90;;
4885;SDS011;2457;51.788;6.136;2023-04-21T04:15:49;26.57;;;15.17;;
4885;SDS011;2457;51.788;6.136;2023-04-21T04:18:17;27.30;;;13.07;;
4885;SDS011;2457;51.788;6.136;2023-04-21T04:20:44;28.10;;;13.40;;
4885;SDS011;2457;51.788;6.136;2023-04-21T04:23:11;22.53;;;14.00;;
4885;SDS011;2457;51.788;6.136;2023-04-21T04:25:39;22.90;;;13.87;;
4885;SDS011;2457;51.788;6.136;2023-04-21T04:28:06;25.00;;;13.87;;
4885;SDS011;2457;51.788;6.136;2023-04-21T04:30:34;26.57;;;15.00;;
4885;SDS011;2457;51.788;6.136;2023-04-21T04:33:02;23.93;;;12.80;;
4885;SDS011;2457;51.788;6.136;2023-04-21T04:35:30;22.70;;;14.37;;
4885;SDS011;2457;51.788;6.136;2023-04-21T04:37:57;24.07;;;14.53;;
4885;SDS011;2457;51.788;6.136;2023-04-21T04:40:24;25.53;;;14.20;;
4885;SDS011;2457;51.788;6.136;2023-04-21T04:42:52;22.43;;;13.63;;
4885;SDS011;2457;51.788;6.136;2023-04-21T04:45:20;28.60;;;14.20;;
4885;SDS011;2457;51.788;6.136;2023-04-21T04:47:48;23.90;;;14.67;;
4885;SDS011;2457;51.788;6.136;2023-04-21T04:50:15;23.47;;;14.37;;
4885;SDS011;2457;51.788;6.136;2023-04-21T04:52:42;26.20;;;15.17;;
4885;SDS011;2457;51.788;6.136;2023-04-21T04:55:12;23.23;;;14.27;;
4885;SDS011;2457;51.788;6.136;2023-04-21T04:57:39;23.40;;;12.97;;
4885;SDS011;2457;51.788;6.136;2023-04-21T05:00:07;24.33;;;14.77;;
4885;SDS011;2457;51.788;6.136;2023-04-21T05:02:39;24.90;;;15.60;;
4885;SDS011;2457;51.788;6.136;2023-04-21T05:05:07;21.90;;;12.93;;
4885;SDS011;2457;51.788;6.136;2023-04-21T05:07:34;23.90;;;13.60;;
4885;SDS011;2457;51.788;6.136;2023-04-21T05:10:01;20.60;;;13.27;;
4885;SDS011;2457;51.788;6.136;2023-04-21T05:12:30;25.17;;;14.33;;
4885;SDS011;2457;51.788;6.136;2023-04-21T05:15:00;20.67;;;13.40;;
4885;SDS011;2457;51.788;6.136;2023-04-21T05:17:27;24.70;;;14.77;;
4885;SDS011;2457;51.788;6.136;2023-04-21T05:19:56;25.00;;;14.37;;
4885;SDS011;2457;51.788;6.136;2023-04-21T05:22:23;23.40;;;14.10;;
4885;SDS011;2457;51.788;6.136;2023-04-21T05:24:51;28.60;;;15.47;;
4885;SDS011;2457;51.788;6.136;2023-04-21T05:27:19;22.37;;;13.37;;
4885;SDS011;2457;51.788;6.136;2023-04-21T05:29:46;26.80;;;14.53;;
4885;SDS011;2457;51.788;6.136;2023-04-21T05:32:14;22.87;;;13.83;;
4885;SDS011;2457;51.788;6.136;2023-04-21T05:34:41;24.80;;;13.93;;
4885;SDS011;2457;51.788;6.136;2023-04-21T05:37:09;22.83;;;13.80;;
4885;SDS011;2457;51.788;6.136;2023-04-21T05:39:37;21.77;;;13.20;;
4885;SDS011;2457;51.788;6.136;2023-04-21T05:42:04;24.17;;;14.73;;
4885;SDS011;2457;51.788;6.136;2023-04-21T05:44:32;24.37;;;14.07;;
4885;SDS011;2457;51.788;6.136;2023-04-21T05:46:59;26.50;;;13.07;;
4885;SDS011;2457;51.788;6.136;2023-04-21T05:49:26;22.03;;;13.17;;
4885;SDS011;2457;51.788;6.136;2023-04-21T05:51:54;23.00;;;13.70;;
4885;SDS011;2457;51.788;6.136;2023-04-21T05:54:21;22.90;;;15.17;;
4885;SDS011;2457;51.788;6.136;2023-04-21T05:56:48;26.73;;;14.90;;
4885;SDS011;2457;51.788;6.136;2023-04-21T05:59:15;23.43;;;13.30;;
4885;SDS011;2457;51.788;6.136;2023-04-21T06:01:43;24.40;;;14.03;;
4885;SDS011;2457;51.788;6.136;2023-04-21T06:04:10;23.83;;;14.73;;
4885;SDS011;2457;51.788;6.136;2023-04-21T06:06:37;25.30;;;13.23;;
4885;SDS011;2457;51.788;6.136;2023-04-21T06:09:04;20.97;;;13.10;;
4885;SDS011;2457;51.788;6.136;2023-04-21T06:11:33;25.37;;;14.33;;
4885;SDS011;2457;51.788;6.136;2023-04-21T06:14:00;25.53;;;14.30;;
4885;SDS011;2457;51.788;6.136;2023-04-21T06:16:27;25.43;;;14.00;;
4885;SDS011;2457;51.788;6.136;2023-04-21T06:18:56;25.10;;;14.47;;
4885;SDS011;2457;51.788;6.136;2023-04-21T06:21:24;23.47;;;15.10;;
4885;SDS011;2457;51.788;6.136;2023-04-21T06:23:51;26.53;;;14.43;;
4885;SDS011;2457;51.788;6.136;2023-04-21T06:26:18;26.20;;;14.07;;
4885;SDS011;2457;51.788;6.136;2023-04-21T06:28:46;23.77;;;13.53;;
4885;SDS011;2457;51.788;6.136;2023-04-21T06:31:13;23.87;;;14.60;;
4885;SDS011;2457;51.788;6.136;2023-04-21T06:33:40;25.47;;;15.33;;
4885;SDS011;2457;51.788;6.136;2023-04-21T06:36:07;25.60;;;14.40;;
4885;SDS011;2457;51.788;6.136;2023-04-21T06:38:35;25.13;;;14.90;;
4885;SDS011;2457;51.788;6.136;2023-04-21T06:41:02;25.80;;;14.40;;
4885;SDS011;2457;51.788;6.136;2023-04-21T06:43:29;22.43;;;13.70;;
4885;SDS011;2457;51.788;6.136;2023-04-21T06:45:57;26.97;;;14.70;;
4885;SDS011;2457;51.788;6.136;2023-04-21T06:48:24;22.50;;;13.37;;
4885;SDS011;2457;51.788;6.136;2023-04-21T06:50:51;25.50;;;14.20;;
4885;SDS011;2457;51.788;6.136;2023-04-21T06:53:19;24.53;;;14.40;;
4885;SDS011;2457;51.788;6.136;2023-04-21T06:55:47;22.77;;;14.00;;
4885;SDS011;2457;51.788;6.136;2023-04-21T06:58:14;23.50;;;14.60;;
4885;SDS011;2457;51.788;6.136;2023-04-21T07:00:41;26.97;;;14.40;;
4885;SDS011;2457;51.788;6.136;2023-04-21T07:03:08;30.67;;;14.43;;
4885;SDS011;2457;51.788;6.136;2023-04-21T07:05:36;24.33;;;14.10;;
4885;SDS011;2457;51.788;6.136;2023-04-21T07:08:03;26.30;;;15.87;;
4885;SDS011;2457;51.788;6.136;2023-04-21T07:10:30;26.60;;;15.00;;
4885;SDS011;2457;51.788;6.136;2023-04-21T07:12:57;23.83;;;14.33;;
4885;SDS011;2457;51.788;6.136;2023-04-21T07:15:25;24.00;;;14.23;;
4885;SDS011;2457;51.788;6.136;2023-04-21T07:17:52;24.00;;;14.90;;
4885;SDS011;2457;51.788;6.136;2023-04-21T07:20:20;27.23;;;14.73;;
4885;SDS011;2457;51.788;6.136;2023-04-21T07:22:47;28.13;;;14.53;;
4885;SDS011;2457;51.788;6.136;2023-04-21T07:25:14;24.00;;;13.73;;
4885;SDS011;2457;51.788;6.136;2023-04-21T07:27:41;30.20;;;14.87;;
4885;SDS011;2457;51.788;6.136;2023-04-21T07:30:09;28.50;;;15.77;;
4885;SDS011;2457;51.788;6.136;2023-04-21T07:32:36;24.70;;;14.47;;
4885;SDS011;2457;51.788;6.136;2023-04-21T07:35:04;24.27;;;14.10;;
4885;SDS011;2457;51.788;6.136;2023-04-21T07:37:32;27.37;;;15.80;;
4885;SDS011;2457;51.788;6.136;2023-04-21T07:39:59;23.17;;;14.00;;
4885;SDS011;2457;51.788;6.136;2023-04-21T07:42:26;28.73;;;14.03;;
4885;SDS011;2457;51.788;6.136;2023-04-21T07:44:53;26.57;;;15.37;;
4885;SDS011;2457;51.788;6.136;2023-04-21T07:47:22;22.13;;;13.10;;
4885;SDS011;2457;51.788;6.136;2023-04-21T07:49:50;26.70;;;14.70;;
4885;SDS011;2457;51.788;6.136;2023-04-21T07:52:17;25.10;;;15.00;;
4885;SDS011;2457;51.788;6.136;2023-04-21T07:54:44;28.10;;;15.37;;
4885;SDS011;2457;51.788;6.136;2023-04-21T07:57:11;24.83;;;14.53;;
4885;SDS011;2457;51.788;6.136;2023-04-21T07:59:39;22.63;;;13.57;;
4885;SDS011;2457;51.788;6.136;2023-04-21T08:02:06;23.03;;;13.87;;
4885;SDS011;2457;51.788;6.136;2023-04-21T08:04:34;27.03;;;14.27;;
4885;SDS011;2457;51.788;6.136;2023-04-21T08:07:02;24.07;;;13.60;;
4885;SDS011;2457;51.788;6.136;2023-04-21T08:09:29;23.70;;;14.80;;
4885;SDS011;2457;51.788;6.136;2023-04-21T08:11:56;23.60;;;13.10;;
4885;SDS011;2457;51.788;6.136;2023-04-21T08:14:23;22.43;;;13.77;;
4885;SDS011;2457;51.788;6.136;2023-04-21T08:16:52;21.40;;;13.60;;
4885;SDS011;2457;51.788;6.136;2023-04-21T08:19:19;26.60;;;14.00;;
4885;SDS011;2457;51.788;6.136;2023-04-21T08:21:46;23.00;;;14.30;;
4885;SDS011;2457;51.788;6.136;2023-04-21T08:24:14;25.73;;;14.40;;
4885;SDS011;2457;51.788;6.136;2023-04-21T08:26:41;24.67;;;14.10;;
4885;SDS011;2457;51.788;6.136;2023-04-21T08:29:08;23.53;;;13.93;;
4885;SDS011;2457;51.788;6.136;2023-04-21T08:31:36;24.37;;;13.97;;
4885;SDS011;2457;51.788;6.136;2023-04-21T08:34:03;26.80;;;14.57;;
4885;SDS011;2457;51.788;6.136;2023-04-21T08:36:30;28.77;;;14.90;;
4885;SDS011;2457;51.788;6.136;2023-04-21T08:38:58;25.00;;;14.00;;
4885;SDS011;2457;51.788;6.136;2023-04-21T08:41:25;23.60;;;14.17;;
4885;SDS011;2457;51.788;6.136;2023-04-21T08:43:53;24.20;;;14.03;;
4885;SDS011;2457;51.788;6.136;2023-04-21T08:46:20;24.70;;;14.17;;
4885;SDS011;2457;51.788;6.136;2023-04-21T08:48:47;30.77;;;13.77;;
4885;SDS011;2457;51.788;6.136;2023-04-21T08:51:21;22.80;;;13.30;;
4885;SDS011;2457;51.788;6.136;2023-04-21T08:53:44;22.50;;;12.70;;
4885;SDS011;2457;51.788;6.136;2023-04-21T08:56:11;21.47;;;13.13;;
4885;SDS011;2457;51.788;6.136;2023-04-21T08:58:38;19.90;;;11.77;;
4885;SDS011;2457;51.788;6.136;2023-04-21T09:01:06;21.30;;;13.40;;
4885;SDS011;2457;51.788;6.136;2023-04-21T09:03:34;23.87;;;13.40;;
4885;SDS011;2457;51.788;6.136;2023-04-21T09:06:02;21.57;;;13.50;;
4885;SDS011;2457;51.788;6.136;2023-04-21T09:08:30;27.23;;;14.90;;
4885;SDS011;2457;51.788;6.136;2023-04-21T09:10:58;28.87;;;14.83;;
4885;SDS011;2457;51.788;6.136;2023-04-21T09:13:30;23.87;;;13.63;;
4885;SDS011;2457;51.788;6.136;2023-04-21T09:15:58;23.70;;;13.33;;
4885;SDS011;2457;51.788;6.136;2023-04-21T09:18:27;25.63;;;14.37;;
4885;SDS011;2457;51.788;6.136;2023-04-21T09:21:09;25.37;;;14.50;;
4885;SDS011;2457;51.788;6.136;2023-04-21T09:23:40;21.67;;;13.53;;
4885;SDS011;2457;51.788;6.136;2023-04-21T09:26:08;22.90;;;13.60;;
4885;SDS011;2457;51.788;6.136;2023-04-21T09:28:35;26.13;;;13.80;;
4885;SDS011;2457;51.788;6.136;2023-04-21T09:31:02;23.30;;;13.00;;
4885;SDS011;2457;51.788;6.136;2023-04-21T09:33:31;21.40;;;13.07;;
4885;SDS011;2457;51.788;6.136;2023-04-21T09:35:59;22.00;;;13.00;;
4885;SDS011;2457;51.788;6.136;2023-04-21T09:38:28;25.47;;;14.40;;
4885;SDS011;2457;51.788;6.136;2023-04-21T09:40:56;20.40;;;13.33;;
4885;SDS011;2457;51.788;6.136;2023-04-21T09:43:24;21.10;;;12.40;;
4885;SDS011;2457;51.788;6.136;2023-04-21T09:45:51;24.17;;;13.60;;
4885;SDS011;2457;51.788;6.136;2023-04-21T09:48:19;26.63;;;14.10;;
4885;SDS011;2457;51.788;6.136;2023-04-21T09:50:48;23.00;;;13.53;;
4885;SDS011;2457;51.788;6.136;2023-04-21T09:53:15;31.60;;;14.40;;
4885;SDS011;2457;51.788;6.136;2023-04-21T09:55:45;24.10;;;14.10;;
4885;SDS011;2457;51.788;6.136;2023-04-21T09:58:13;26.00;;;14.43;;
4885;SDS011;2457;51.788;6.136;2023-04-21T10:00:42;24.87;;;15.30;;
4885;SDS011;2457;51.788;6.136;2023-04-21T10:03:09;23.40;;;14.33;;
4885;SDS011;2457;51.788;6.136;2023-04-21T10:05:38;23.60;;;14.57;;
4885;SDS011;2457;51.788;6.136;2023-04-21T10:08:06;28.30;;;14.40;;
4885;SDS011;2457;51.788;6.136;2023-04-21T10:10:35;25.30;;;14.47;;
4885;SDS011;2457;51.788;6.136;2023-04-21T10:13:03;23.23;;;13.57;;
4885;SDS011;2457;51.788;6.136;2023-04-21T10:15:38;24.13;;;13.30;;
4885;SDS011;2457;51.788;6.136;2023-04-21T10:18:12;23.33;;;13.37;;
4885;SDS011;2457;51.788;6.136;2023-04-21T10:23:24;27.00;;;13.97;;
4885;SDS011;2457;51.788;6.136;2023-04-21T10:25:44;21.30;;;12.97;;
4885;SDS011;2457;51.788;6.136;2023-04-21T10:28:11;27.53;;;13.20;;
4885;SDS011;2457;51.788;6.136;2023-04-21T10:30:40;23.17;;;12.97;;
4885;SDS011;2457;51.788;6.136;2023-04-21T10:33:07;26.30;;;13.50;;
4885;SDS011;2457;51.788;6.136;2023-04-21T10:43:47;22.97;;;13.23;;
4885;SDS011;2457;51.788;6.136;2023-04-21T10:46:34;20.77;;;13.00;;
4885;SDS011;2457;51.788;6.136;2023-04-21T10:49:06;26.80;;;14.63;;
4885;SDS011;2457;51.788;6.136;2023-04-21T10:54:22;19.50;;;12.13;;
4885;SDS011;2457;51.788;6.136;2023-04-21T10:56:55;24.53;;;14.27;;
4885;SDS011;2457;51.788;6.136;2023-04-21T10:59:23;25.10;;;13.20;;
4885;SDS011;2457;51.788;6.136;2023-04-21T11:01:51;26.70;;;14.10;;
4885;SDS011;2457;51.788;6.136;2023-04-21T11:04:19;27.77;;;15.13;;
4885;SDS011;2457;51.788;6.136;2023-04-21T11:09:33;25.23;;;14.30;;
4885;SDS011;2457;51.788;6.136;2023-04-21T11:12:02;25.97;;;14.00;;
4885;SDS011;2457;51.788;6.136;2023-04-21T11:14:29;27.20;;;14.23;;
4885;SDS011;2457;51.788;6.136;2023-04-21T11:16:57;22.73;;;13.30;;
4885;SDS011;2457;51.788;6.136;2023-04-21T11:19:24;22.40;;;13.43;;
4885;SDS011;2457;51.788;6.136;2023-04-21T11:21:54;22.50;;;12.30;;
4885;SDS011;2457;51.788;6.136;2023-04-21T11:24:22;24.70;;;14.37;;
4885;SDS011;2457;51.788;6.136;2023-04-21T11:26:50;21.23;;;12.70;;
4885;SDS011;2457;51.788;6.136;2023-04-21T11:29:17;21.33;;;12.20;;
4885;SDS011;2457;51.788;6.136;2023-04-21T11:31:45;24.10;;;13.87;;
4885;SDS011;2457;51.788;6.136;2023-04-21T11:34:14;27.23;;;14.67;;
4885;SDS011;2457;51.788;6.136;2023-04-21T11:36:42;21.30;;;13.00;;
4885;SDS011;2457;51.788;6.136;2023-04-21T11:39:11;22.67;;;12.80;;
4885;SDS011;2457;51.788;6.136;2023-04-21T11:41:39;13.77;;;7.30;;
4885;SDS011;2457;51.788;6.136;2023-04-21T11:44:09;23.13;;;12.23;;
4885;SDS011;2457;51.788;6.136;2023-04-21T11:46:43;27.60;;;13.47;;
4885;SDS011;2457;51.788;6.136;2023-04-21T11:49:09;23.57;;;12.67;;
4885;SDS011;2457;51.788;6.136;2023-04-21T11:51:43;22.20;;;13.03;;
4885;SDS011;2457;51.788;6.136;2023-04-21T11:54:07;22.73;;;12.00;;
4885;SDS011;2457;51.788;6.136;2023-04-21T11:56:36;22.30;;;12.90;;
4885;SDS011;2457;51.788;6.136;2023-04-21T11:59:06;22.73;;;11.33;;
4885;SDS011;2457;51.788;6.136;2023-04-21T12:01:34;26.37;;;12.83;;
4885;SDS011;2457;51.788;6.136;2023-04-21T12:04:03;21.70;;;11.77;;
4885;SDS011;2457;51.788;6.136;2023-04-21T12:06:30;27.13;;;12.60;;
4885;SDS011;2457;51.788;6.136;2023-04-21T12:09:01;25.40;;;13.17;;
4885;SDS011;2457;51.788;6.136;2023-04-21T12:11:29;23.20;;;11.97;;
4885;SDS011;2457;51.788;6.136;2023-04-21T12:13:56;23.73;;;13.87;;
4885;SDS011;2457;51.788;6.136;2023-04-21T12:16:24;20.20;;;11.87;;
4885;SDS011;2457;51.788;6.136;2023-04-21T12:18:55;26.97;;;14.70;;
4885;SDS011;2457;51.788;6.136;2023-04-21T12:21:30;23.50;;;12.93;;
4885;SDS011;2457;51.788;6.136;2023-04-21T12:23:54;22.40;;;13.13;;
4885;SDS011;2457;51.788;6.136;2023-04-21T12:26:22;27.70;;;13.20;;
4885;SDS011;2457;51.788;6.136;2023-04-21T12:28:49;26.20;;;12.60;;
4885;SDS011;2457;51.788;6.136;2023-04-21T12:31:17;22.83;;;11.83;;
4885;SDS011;2457;51.788;6.136;2023-04-21T12:33:44;24.53;;;13.87;;
4885;SDS011;2457;51.788;6.136;2023-04-21T12:36:12;21.97;;;11.27;;
4885;SDS011;2457;51.788;6.136;2023-04-21T12:38:39;22.67;;;12.57;;
4885;SDS011;2457;51.788;6.136;2023-04-21T12:41:06;24.17;;;12.30;;
4885;SDS011;2457;51.788;6.136;2023-04-21T12:43:34;28.23;;;14.00;;
4885;SDS011;2457;51.788;6.136;2023-04-21T12:46:01;22.23;;;12.83;;
4885;SDS011;2457;51.788;6.136;2023-04-21T12:48:28;25.07;;;14.47;;
4885;SDS011;2457;51.788;6.136;2023-04-21T12:50:56;20.80;;;11.30;;
4885;SDS011;2457;51.788;6.136;2023-04-21T12:53:23;30.37;;;14.27;;
4885;SDS011;2457;51.788;6.136;2023-04-21T12:55:50;24.03;;;14.00;;
4885;SDS011;2457;51.788;6.136;2023-04-21T12:58:18;23.67;;;13.00;;
4885;SDS011;2457;51.788;6.136;2023-04-21T13:00:45;24.97;;;13.77;;
4885;SDS011;2457;51.788;6.136;2023-04-21T13:03:12;26.27;;;13.57;;
4885;SDS011;2457;51.788;6.136;2023-04-21T13:05:39;21.90;;;13.90;;
4885;SDS011;2457;51.788;6.136;2023-04-21T13:08:07;22.27;;;12.80;;
4885;SDS011;2457;51.788;6.136;2023-04-21T13:10:34;23.83;;;11.67;;
4885;SDS011;2457;51.788;6.136;2023-04-21T13:13:01;25.30;;;13.43;;
4885;SDS011;2457;51.788;6.136;2023-04-21T13:15:29;22.63;;;12.70;;
4885;SDS011;2457;51.788;6.136;2023-04-21T13:17:57;26.50;;;12.10;;
4885;SDS011;2457;51.788;6.136;2023-04-21T13:20:24;21.97;;;12.60;;
4885;SDS011;2457;51.788;6.136;2023-04-21T13:22:52;24.60;;;11.30;;
4885;SDS011;2457;51.788;6.136;2023-04-21T13:25:19;21.30;;;11.07;;
4885;SDS011;2457;51.788;6.136;2023-04-21T13:27:46;18.10;;;11.33;;
4885;SDS011;2457;51.788;6.136;2023-04-21T13:30:14;19.10;;;10.33;;
4885;SDS011;2457;51.788;6.136;2023-04-21T13:32:41;22.43;;;12.13;;
4885;SDS011;2457;51.788;6.136;2023-04-21T13:35:09;20.00;;;11.40;;
4885;SDS011;2457;51.788;6.136;2023-04-21T13:37:36;22.93;;;11.20;;
4885;SDS011;2457;51.788;6.136;2023-04-21T13:40:05;16.13;;;9.80;;
4885;SDS011;2457;51.788;6.136;2023-04-21T13:42:33;17.83;;;10.20;;
4885;SDS011;2457;51.788;6.136;2023-04-21T13:45:01;17.27;;;9.50;;
4885;SDS011;2457;51.788;6.136;2023-04-21T13:47:31;17.43;;;9.70;;
4885;SDS011;2457;51.788;6.136;2023-04-21T13:49:59;19.10;;;9.67;;
4885;SDS011;2457;51.788;6.136;2023-04-21T13:52:26;19.20;;;10.83;;
4885;SDS011;2457;51.788;6.136;2023-04-21T13:54:54;19.80;;;10.57;;
4885;SDS011;2457;51.788;6.136;2023-04-21T13:57:21;15.50;;;9.63;;
4885;SDS011;2457;51.788;6.136;2023-04-21T13:59:50;17.17;;;9.10;;
4885;SDS011;2457;51.788;6.136;2023-04-21T14:02:18;14.60;;;4.97;;
4885;SDS011;2457;51.788;6.136;2023-04-21T14:04:46;18.10;;;9.97;;
4885;SDS011;2457;51.788;6.136;2023-04-21T14:07:13;19.40;;;9.90;;
4885;SDS011;2457;51.788;6.136;2023-04-21T14:09:42;18.33;;;9.27;;
4885;SDS011;2457;51.788;6.136;2023-04-21T14:12:10;21.27;;;10.47;;
4885;SDS011;2457;51.788;6.136;2023-04-21T14:14:37;18.33;;;10.00;;
4885;SDS011;2457;51.788;6.136;2023-04-21T14:17:05;12.27;;;7.40;;
4885;SDS011;2457;51.788;6.136;2023-04-21T14:19:33;21.50;;;11.00;;
4885;SDS011;2457;51.788;6.136;2023-04-21T14:22:01;18.00;;;10.43;;
4885;SDS011;2457;51.788;6.136;2023-04-21T14:24:28;17.20;;;9.60;;
4885;SDS011;2457;51.788;6.136;2023-04-21T14:26:57;16.90;;;9.40;;
4885;SDS011;2457;51.788;6.136;2023-04-21T14:29:25;18.00;;;8.93;;
4885;SDS011;2457;51.788;6.136;2023-04-21T14:31:52;16.03;;;10.17;;
4885;SDS011;2457;51.788;6.136;2023-04-21T14:34:21;21.90;;;10.73;;
4885;SDS011;2457;51.788;6.136;2023-04-21T14:36:49;15.47;;;9.47;;
4885;SDS011;2457;51.788;6.136;2023-04-21T14:39:16;17.17;;;10.30;;
4885;SDS011;2457;51.788;6.136;2023-04-21T14:41:43;21.17;;;11.33;;
4885;SDS011;2457;51.788;6.136;2023-04-21T14:44:11;19.63;;;11.00;;
4885;SDS011;2457;51.788;6.136;2023-04-21T14:46:38;23.00;;;11.73;;
4885;SDS011;2457;51.788;6.136;2023-04-21T14:49:05;23.00;;;11.07;;
4885;SDS011;2457;51.788;6.136;2023-04-21T14:51:33;18.43;;;11.47;;
4885;SDS011;2457;51.788;6.136;2023-04-21T14:54:00;17.73;;;10.13;;
4885;SDS011;2457;51.788;6.136;2023-04-21T14:56:27;24.33;;;11.80;;
4885;SDS011;2457;51.788;6.136;2023-04-21T14:58:55;18.60;;;10.33;;
4885;SDS011;2457;51.788;6.136;2023-04-21T15:01:22;20.50;;;11.40;;
4885;SDS011;2457;51.788;6.136;2023-04-21T15:03:49;22.10;;;11.47;;
4885;SDS011;2457;51.788;6.136;2023-04-21T15:06:16;19.77;;;10.80;;